CheckWX is a tool to help pilots better visualize weather data.  It is not intended as a substitute for an official pre-flight weather briefing.

04:53:52 UTC

LDZA METAR
Zagreb Airport
Zagreb, Croatia
Current

24 mins ago

LDZA 180430Z 00000KT 9999 R23/1200U MIFG FEW002 14/12 Q1015 NOSIG
Observed
Aug-18 @ 04:30 UTC
Visibility
10,000+ meters
Flight Rules
VFR
Conditions
Shallow Fog
Cloud Levels
  • Few at 200' AGL
Temperature
14°C / 57°F
Dewpoint
12°C / 54°F
Humidity
88%
Altimeter
29.97" Hg
Pressure
1014.92 hPa
Previous

54 mins ago

LDZA 180400Z 00000KT 9999 MIFG FEW002 13/12 Q1015 NOSIG
Observed
Aug-18 @ 04:00 UTC
Visibility
10,000+ meters
Flight Rules
VFR
Conditions
Shallow Fog
Cloud Levels
  • Few at 200' AGL
Temperature
13°C / 55°F
Dewpoint
12°C / 54°F
Humidity
94%
Altimeter
29.97" Hg
Pressure
1014.92 hPa
Previous

1 hour ago

LDZA 180330Z 00000KT 9999 FEW002 14/13 Q1015 NOSIG
Observed
Aug-18 @ 03:30 UTC
Visibility
10,000+ meters
Flight Rules
VFR
Cloud Levels
  • Few at 200' AGL
Temperature
14°C / 57°F
Dewpoint
13°C / 55°F
Humidity
94%
Altimeter
29.97" Hg
Pressure
1014.92 hPa